createdAt,value
2022-09-12T00:01:27.398Z,90.75
2022-09-12T00:04:00.280Z,91.20
2022-09-12T00:06:30.076Z,91.28
2022-09-12T00:08:59.658Z,91.95
2022-09-12T00:11:27.275Z,91.86
2022-09-12T00:13:59.168Z,91.51
2022-09-12T00:16:28.485Z,91.83
2022-09-12T00:18:55.214Z,91.58
2022-09-12T00:21:22.778Z,91.71
2022-09-12T00:23:49.719Z,91.53
2022-09-12T00:26:17.661Z,91.46
2022-09-12T00:28:45.300Z,91.20
2022-09-12T00:31:14.904Z,91.57
2022-09-12T00:33:42.245Z,92.23
2022-09-12T00:36:15.358Z,92.49
2022-09-12T00:38:43.079Z,92.45
2022-09-12T00:41:32.737Z,92.03
2022-09-12T00:44:05.722Z,91.90
2022-09-12T00:46:41.914Z,92.15
2022-09-12T00:49:33.049Z,92.03
2022-09-12T00:52:13.305Z,91.75
2022-09-12T00:55:03.916Z,92.83
2022-09-12T00:57:35.998Z,93.01
2022-09-12T01:00:13.608Z,93.15
2022-09-12T01:02:41.009Z,93.43
2022-09-12T01:05:08.920Z,92.77
2022-09-12T01:07:39.908Z,92.66
2022-09-12T01:10:09.698Z,92.48
2022-09-12T01:12:40.383Z,92.22
2022-09-12T01:15:07.421Z,92.28
2022-09-12T01:17:48.987Z,92.94
2022-09-12T01:20:18.530Z,93.50
2022-09-12T01:22:59.145Z,93.29
2022-09-12T01:25:28.696Z,93.50
2022-09-12T01:28:40.377Z,93.23
2022-09-12T01:31:30.299Z,93.92
2022-09-12T01:34:21.730Z,94.57
2022-09-12T01:37:05.111Z,94.77
2022-09-12T01:39:50.186Z,94.28
2022-09-12T01:42:37.068Z,94.07
2022-09-12T01:45:16.560Z,93.97
2022-09-12T01:47:50.175Z,94.65
2022-09-12T01:50:24.568Z,94.90
2022-09-12T01:53:23.672Z,94.81
2022-09-12T01:55:57.788Z,95.07
2022-09-12T01:58:36.428Z,94.99
2022-09-12T02:01:08.495Z,95.26
2022-09-12T02:03:44.949Z,95.22
2022-09-12T02:06:33.678Z,95.87
2022-09-12T02:09:16.294Z,95.59
2022-09-12T02:11:44.786Z,96.09
2022-09-12T02:14:43.440Z,95.49
2022-09-12T02:17:13.096Z,95.39
2022-09-12T02:20:03.207Z,95.32
2022-09-12T02:22:31.637Z,95.64
2022-09-12T02:25:01.190Z,95.26
2022-09-12T02:27:37.988Z,95.22
2022-09-12T02:30:08.814Z,95.22
2022-09-12T02:32:50.046Z,95.30
2022-09-12T02:35:31.222Z,95.69
2022-09-12T02:38:05.394Z,95.22
2022-09-12T02:40:33.344Z,95.41
2022-09-12T02:43:00.622Z,95.45
2022-09-12T02:45:27.603Z,95.79
2022-09-12T02:48:05.481Z,95.29
2022-09-12T02:50:32.170Z,95.99
2022-09-12T02:53:04.335Z,96.20
2022-09-12T02:55:36.459Z,96.09
2022-09-12T02:58:05.391Z,97.06
2022-09-12T03:00:38.983Z,97.48
2022-09-12T03:03:24.148Z,97.42
2022-09-12T03:05:59.478Z,97.46
2022-09-12T03:08:38.907Z,97.63
2022-09-12T03:11:17.380Z,97.50
2022-09-12T03:14:21.188Z,97.58
2022-09-12T03:17:32.370Z,97.89
2022-09-12T03:20:41.999Z,98.03
2022-09-12T03:23:31.402Z,98.42
2022-09-12T03:26:06.843Z,98.44
2022-09-12T03:28:35.689Z,98.57
2022-09-12T03:31:13.352Z,98.61
2022-09-12T03:33:40.028Z,98.44
2022-09-12T03:36:07.024Z,99.09
2022-09-12T03:38:33.644Z,99.32
2022-09-12T03:41:01.277Z,99.14
2022-09-12T03:43:27.860Z,99.25
2022-09-12T03:45:54.595Z,99.74
2022-09-12T03:48:21.229Z,100.00
2022-09-12T03:50:47.833Z,100.00
2022-09-12T03:53:17.276Z,100.00
2022-09-12T03:55:44.446Z,100.00
2022-09-12T03:58:11.066Z,100.00
2022-09-12T04:00:39.226Z,100.00
2022-09-12T04:03:05.794Z,100.00
2022-09-12T04:05:32.368Z,100.00
2022-09-12T04:07:58.964Z,100.00
2022-09-12T04:10:25.610Z,100.00
2022-09-12T04:12:52.265Z,100.00
2022-09-12T04:15:18.986Z,100.00
2022-09-12T04:17:45.592Z,100.00
2022-09-12T04:20:12.450Z,100.00
2022-09-12T04:22:39.153Z,100.00
2022-09-12T04:25:06.384Z,100.00
2022-09-12T04:27:33.053Z,100.00
2022-09-12T04:30:01.190Z,100.00
2022-09-12T04:32:30.942Z,100.00
2022-09-12T04:34:58.064Z,100.00
2022-09-12T04:37:24.810Z,100.00
2022-09-12T04:39:51.838Z,100.00
2022-09-12T04:42:18.619Z,100.00
2022-09-12T04:44:45.224Z,100.00
2022-09-12T04:47:11.819Z,100.00
2022-09-12T04:49:38.388Z,100.00
2022-09-12T04:52:05.091Z,100.00
2022-09-12T04:54:31.886Z,100.00
2022-09-12T04:56:59.042Z,100.00
2022-09-12T04:59:26.535Z,100.00
2022-09-12T05:01:53.255Z,100.00
2022-09-12T05:04:19.925Z,100.00
2022-09-12T05:06:47.442Z,100.00
2022-09-12T05:09:14.648Z,100.00
2022-09-12T05:14:32.472Z,100.00
2022-09-12T05:17:01.337Z,100.00
2022-09-12T05:19:30.172Z,100.00
2022-09-12T05:21:57.007Z,100.00
2022-09-12T05:24:24.503Z,100.00
2022-09-12T05:26:51.304Z,100.00
2022-09-12T05:29:18.024Z,100.00
2022-09-12T05:31:44.600Z,100.00
2022-09-12T05:34:11.339Z,100.00
2022-09-12T05:36:38.713Z,100.00
2022-09-12T05:39:05.733Z,100.00
2022-09-12T05:41:33.961Z,100.00
2022-09-12T05:44:02.921Z,100.00
2022-09-12T05:46:32.032Z,100.00
2022-09-12T05:49:03.984Z,100.00
2022-09-12T05:51:34.232Z,100.00
2022-09-12T05:54:03.330Z,100.00
2022-09-12T05:56:32.318Z,100.00
2022-09-12T05:59:04.674Z,100.00
2022-09-12T06:01:33.357Z,100.00
2022-09-12T06:04:02.235Z,100.00
2022-09-12T06:06:30.280Z,100.00
2022-09-12T06:08:59.754Z,100.00
2022-09-12T06:11:28.941Z,100.00
2022-09-12T06:13:57.455Z,100.00
2022-09-12T06:16:26.740Z,100.00
2022-09-12T06:19:17.415Z,100.00
2022-09-12T06:21:44.759Z,100.00
2022-09-12T06:24:11.496Z,100.00
2022-09-12T06:26:38.253Z,100.00
2022-09-12T06:29:05.020Z,100.00
2022-09-12T06:31:37.145Z,100.00
2022-09-12T06:34:06.575Z,100.00
2022-09-12T06:36:36.925Z,100.00
2022-09-12T06:39:12.799Z,100.00
2022-09-12T06:41:43.657Z,100.00
2022-09-12T06:44:19.538Z,100.00
2022-09-12T06:46:46.399Z,100.00
2022-09-12T06:49:13.673Z,100.00
2022-09-12T06:51:42.130Z,100.00
2022-09-12T06:54:12.197Z,100.00
2022-09-12T06:56:38.921Z,100.00
2022-09-12T06:59:05.561Z,100.00
2022-09-12T07:01:32.673Z,100.00
2022-09-12T07:04:03.907Z,100.00
2022-09-12T07:06:36.243Z,100.00
2022-09-12T07:09:05.770Z,100.00
2022-09-12T07:11:35.321Z,100.00
2022-09-12T07:14:03.710Z,99.74
2022-09-12T07:16:30.702Z,99.28
2022-09-12T07:18:59.912Z,98.68
2022-09-12T07:21:27.190Z,98.01
2022-09-12T07:23:58.004Z,98.15
2022-09-12T07:26:26.913Z,97.90
2022-09-12T07:29:07.909Z,97.18
2022-09-12T07:31:42.396Z,96.99
2022-09-12T07:34:09.101Z,96.06
2022-09-12T07:36:36.103Z,95.82
2022-09-12T07:39:02.908Z,95.39
2022-09-12T07:41:33.559Z,95.12
2022-09-12T07:44:02.689Z,94.82
2022-09-12T07:46:30.946Z,95.02
2022-09-12T07:48:59.277Z,94.50
2022-09-12T07:51:27.671Z,93.13
2022-09-12T07:53:54.957Z,92.78
2022-09-12T07:56:25.023Z,92.85
2022-09-12T07:58:54.747Z,91.53
2022-09-12T08:01:25.143Z,91.35
2022-09-12T08:03:57.297Z,90.83
2022-09-12T08:06:25.949Z,89.74
2022-09-12T08:08:55.241Z,90.14
2022-09-12T08:11:23.053Z,88.25
2022-09-12T08:13:54.792Z,88.32
2022-09-12T08:16:24.496Z,87.20
2022-09-12T08:18:51.297Z,87.41
2022-09-12T08:21:23.247Z,85.04
2022-09-12T08:24:01.820Z,84.23
2022-09-12T08:26:28.997Z,83.90
2022-09-12T08:28:55.817Z,83.46
2022-09-12T08:31:24.745Z,83.68
2022-09-12T08:33:51.985Z,82.56
2022-09-12T08:36:21.555Z,81.61
2022-09-12T08:38:50.831Z,80.97
2022-09-12T08:41:30.316Z,80.50
2022-09-12T08:44:30.770Z,79.51
2022-09-12T08:47:25.083Z,78.55
2022-09-12T08:49:59.380Z,75.58
2022-09-12T08:52:46.213Z,75.57
2022-09-12T08:55:25.519Z,73.90
2022-09-12T08:57:52.727Z,74.58
2022-09-12T09:00:21.419Z,73.69
2022-09-12T09:03:10.838Z,72.73
2022-09-12T09:06:07.202Z,70.96
2022-09-12T09:08:48.716Z,71.53
2022-09-12T09:11:26.614Z,70.01
2022-09-12T09:14:26.917Z,69.82
2022-09-12T09:16:56.215Z,68.06
2022-09-12T09:19:31.163Z,67.60
2022-09-12T09:22:01.390Z,65.54
2022-09-12T09:24:36.609Z,65.46
2022-09-12T09:27:29.820Z,64.94
2022-09-12T09:29:57.618Z,66.05
2022-09-12T09:32:37.625Z,65.36
2022-09-12T09:35:38.038Z,62.97
2022-09-12T09:38:29.235Z,62.50
2022-09-12T09:41:19.699Z,62.12
2022-09-12T09:43:46.562Z,62.25
2022-09-12T09:46:14.246Z,62.43
2022-09-12T09:48:43.908Z,60.63
2022-09-12T09:51:10.947Z,59.84
2022-09-12T09:53:44.440Z,60.43
2022-09-12T09:56:33.752Z,58.52
2022-09-12T09:59:12.069Z,58.04
2022-09-12T10:01:49.735Z,58.00
2022-09-12T10:04:28.213Z,57.49
2022-09-12T10:07:01.123Z,59.21
2022-09-12T10:09:30.601Z,56.39
2022-09-12T10:11:57.428Z,55.76
2022-09-12T10:14:36.861Z,55.89
2022-09-12T10:17:23.325Z,55.82
2022-09-12T10:20:10.470Z,55.78
2022-09-12T10:22:38.490Z,55.62
2022-09-12T10:25:12.453Z,56.57
2022-09-12T10:27:41.466Z,56.53
2022-09-12T10:30:18.706Z,54.92
2022-09-12T10:32:50.630Z,53.44
2022-09-12T10:35:22.205Z,53.31
2022-09-12T10:38:07.237Z,53.62
2022-09-12T10:40:43.231Z,53.52
2022-09-12T10:43:43.160Z,52.16
2022-09-12T10:46:16.000Z,52.26
2022-09-12T10:48:44.049Z,51.98
2022-09-12T10:51:27.383Z,51.41
2022-09-12T10:53:57.569Z,50.15
2022-09-12T10:56:29.142Z,49.19
2022-09-12T10:59:07.323Z,49.06
2022-09-12T11:01:45.316Z,49.87
2022-09-12T11:04:39.654Z,48.58
2022-09-12T11:07:27.036Z,48.97
2022-09-12T11:09:53.975Z,49.17
2022-09-12T11:12:25.305Z,48.32
2022-09-12T11:14:58.399Z,48.59
2022-09-12T11:17:31.182Z,48.12
2022-09-12T11:20:16.626Z,48.38
2022-09-12T11:23:00.955Z,47.49
2022-09-12T11:25:35.069Z,47.41
2022-09-12T11:28:23.675Z,47.25
2022-09-12T11:30:59.179Z,47.44
2022-09-12T11:33:42.839Z,48.53
2022-09-12T11:36:32.571Z,48.28
2022-09-12T11:39:09.027Z,47.49
2022-09-12T11:41:49.881Z,46.35
2022-09-12T11:44:24.592Z,44.65
2022-09-12T11:46:52.240Z,45.09
2022-09-12T11:49:47.173Z,44.83
2022-09-12T11:52:21.244Z,43.87
2022-09-12T11:54:59.701Z,42.69
2022-09-12T11:57:53.976Z,43.18
2022-09-12T12:00:31.757Z,42.76
2022-09-12T12:03:13.741Z,42.08
2022-09-12T12:05:52.242Z,41.18
2022-09-12T12:08:21.254Z,41.98
2022-09-12T12:10:53.922Z,40.90
2022-09-12T12:13:28.568Z,40.60
2022-09-12T12:15:59.109Z,41.03
2022-09-12T12:18:28.300Z,41.24
2022-09-12T12:20:56.997Z,41.54
2022-09-12T12:23:33.424Z,40.71
2022-09-12T12:26:02.012Z,41.49
2022-09-12T12:28:50.814Z,40.68
2022-09-12T12:31:18.226Z,40.58
2022-09-12T12:33:45.046Z,40.31
2022-09-12T12:36:34.723Z,39.55
2022-09-12T12:39:33.270Z,39.50
2022-09-12T12:42:00.567Z,38.92
2022-09-12T12:44:45.536Z,37.80
2022-09-12T12:47:24.167Z,38.35
2022-09-12T12:50:06.049Z,38.01
2022-09-12T12:52:54.206Z,37.67
2022-09-12T12:55:20.831Z,38.41
2022-09-12T12:57:50.959Z,38.16
2022-09-12T13:00:20.298Z,37.98
2022-09-12T13:02:56.611Z,38.03
2022-09-12T13:05:26.340Z,38.25
2022-09-12T13:08:06.647Z,37.18
2022-09-12T13:10:34.197Z,37.19
2022-09-12T13:13:05.207Z,36.02
2022-09-12T13:15:37.760Z,36.11
2022-09-12T13:18:07.519Z,35.98
2022-09-12T13:20:45.242Z,35.61
2022-09-12T13:23:27.637Z,35.87
2022-09-12T13:26:10.243Z,35.49
2022-09-12T13:28:36.917Z,34.61
2022-09-12T13:31:25.847Z,33.03
2022-09-12T13:34:04.009Z,31.85
2022-09-12T13:37:17.552Z,32.12
2022-09-12T13:40:05.473Z,32.68
2022-09-12T13:42:32.203Z,32.81
2022-09-12T13:45:04.236Z,32.62
2022-09-12T13:47:38.627Z,33.08
2022-09-12T13:50:08.486Z,32.85
2022-09-12T13:52:37.867Z,32.22
2022-09-12T13:55:23.641Z,32.10
2022-09-12T13:57:58.463Z,31.88
2022-09-12T14:00:25.566Z,31.49
2022-09-12T14:03:12.247Z,31.64
2022-09-12T14:05:40.838Z,31.86
2022-09-12T14:08:09.178Z,31.75
2022-09-12T14:10:42.456Z,31.29
2022-09-12T14:13:39.175Z,31.17
2022-09-12T14:16:09.896Z,30.98
2022-09-12T14:18:38.708Z,31.75
2022-09-12T14:21:11.282Z,32.34
2022-09-12T14:23:45.035Z,31.48
2022-09-12T14:26:13.493Z,31.60
2022-09-12T14:28:42.337Z,31.21
2022-09-12T14:31:15.751Z,30.25
2022-09-12T14:33:51.199Z,30.90
2022-09-12T14:36:23.654Z,31.62
2022-09-12T14:38:54.369Z,31.35
2022-09-12T14:41:24.773Z,30.46
2022-09-12T14:43:56.291Z,30.19
2022-09-12T14:46:28.587Z,30.37
2022-09-12T14:49:01.089Z,31.32
2022-09-12T14:51:41.153Z,31.30
2022-09-12T14:54:27.672Z,31.03
2022-09-12T14:57:00.448Z,30.57
2022-09-12T14:59:35.985Z,30.58
2022-09-12T15:02:20.921Z,30.08
2022-09-12T15:04:50.562Z,29.27
2022-09-12T15:08:01.817Z,28.25
2022-09-12T15:10:36.718Z,28.98
2022-09-12T15:13:15.405Z,28.98
2022-09-12T15:15:48.237Z,29.62
2022-09-12T15:18:16.617Z,29.93
2022-09-12T15:20:45.279Z,29.92
2022-09-12T15:23:19.552Z,30.04
2022-09-12T15:25:46.600Z,30.20
2022-09-12T15:28:23.049Z,29.43
2022-09-12T15:30:52.274Z,29.44
2022-09-12T15:33:22.786Z,29.92
2022-09-12T15:35:49.986Z,30.10
2022-09-12T15:38:16.749Z,29.39
2022-09-12T15:40:43.351Z,29.41
2022-09-12T15:43:13.446Z,28.70
2022-09-12T15:45:50.469Z,27.43
2022-09-12T15:48:17.804Z,28.58
2022-09-12T15:50:44.764Z,29.00
2022-09-12T15:53:16.119Z,28.71
2022-09-12T15:55:43.639Z,28.79
2022-09-12T15:58:10.381Z,28.20
2022-09-12T16:00:36.980Z,28.12
2022-09-12T16:03:04.086Z,28.36
2022-09-12T16:05:31.089Z,28.13
2022-09-12T16:07:57.679Z,28.34
2022-09-12T16:10:27.552Z,28.03
2022-09-12T16:12:54.378Z,27.14
2022-09-12T16:15:23.405Z,28.31
2022-09-12T16:17:50.957Z,28.09
2022-09-12T16:20:19.215Z,27.96
2022-09-12T16:22:46.089Z,27.46
2022-09-12T16:25:12.691Z,27.54
2022-09-12T16:27:39.297Z,27.19
2022-09-12T16:30:07.334Z,27.81
2022-09-12T16:32:34.059Z,27.28
2022-09-12T16:35:01.096Z,27.56
2022-09-12T16:37:28.489Z,28.25
2022-09-12T16:39:55.155Z,29.14
2022-09-12T16:42:21.787Z,30.08
2022-09-12T16:44:48.539Z,30.92
2022-09-12T16:47:15.501Z,31.70
2022-09-12T16:49:42.111Z,32.34
2022-09-12T16:52:08.903Z,32.55
2022-09-12T16:54:35.565Z,32.25
2022-09-12T16:57:05.135Z,33.12
2022-09-12T16:59:31.849Z,33.48
2022-09-12T17:01:58.854Z,33.00
2022-09-12T17:04:25.552Z,33.11
2022-09-12T17:06:52.221Z,33.41
2022-09-12T17:09:19.061Z,33.32
2022-09-12T17:11:50.322Z,33.29
2022-09-12T17:14:17.487Z,33.07
2022-09-12T17:16:50.861Z,34.14
2022-09-12T17:19:21.034Z,35.07
2022-09-12T17:21:49.942Z,35.66
2022-09-12T17:24:19.911Z,36.79
2022-09-12T17:26:46.930Z,37.34
2022-09-12T17:29:14.751Z,37.32
2022-09-12T17:31:42.589Z,37.30
2022-09-12T17:34:10.817Z,38.69
2022-09-12T17:36:39.587Z,39.28
2022-09-12T17:39:06.254Z,40.36
2022-09-12T17:41:33.087Z,40.54
2022-09-12T17:44:01.369Z,41.33
2022-09-12T17:46:46.272Z,41.06
2022-09-12T17:49:15.282Z,42.78
2022-09-12T17:51:43.655Z,43.02
2022-09-12T17:54:18.803Z,43.06
2022-09-12T17:56:47.379Z,44.93
2022-09-12T17:59:17.327Z,45.93
2022-09-12T18:02:02.420Z,47.20
2022-09-12T18:04:29.061Z,48.53
2022-09-12T18:06:57.603Z,49.19
2022-09-12T18:09:28.018Z,49.87
2022-09-12T18:11:55.250Z,49.44
2022-09-12T18:14:22.138Z,50.52
2022-09-12T18:16:49.277Z,51.56
2022-09-12T18:19:16.422Z,52.37
2022-09-12T18:21:43.205Z,52.43
2022-09-12T18:24:11.343Z,53.23
2022-09-12T18:26:38.043Z,53.64
2022-09-12T18:29:04.907Z,54.32
2022-09-12T18:31:31.730Z,54.31
2022-09-12T18:34:02.654Z,54.48
2022-09-12T18:36:30.554Z,55.44
2022-09-12T18:38:58.782Z,56.40
2022-09-12T18:41:26.285Z,56.67
2022-09-12T18:43:57.775Z,59.01
2022-09-12T18:46:25.366Z,60.86
2022-09-12T18:48:52.034Z,61.29
2022-09-12T18:51:25.372Z,62.06
2022-09-12T18:53:54.874Z,61.70
2022-09-12T18:56:23.499Z,61.81
2022-09-12T18:58:52.447Z,62.63
2022-09-12T19:01:24.815Z,62.86
2022-09-12T19:03:52.628Z,63.26
2022-09-12T19:06:20.309Z,65.38
2022-09-12T19:08:48.754Z,65.63
2022-09-12T19:11:16.310Z,66.40
2022-09-12T19:13:44.960Z,66.79
2022-09-12T19:16:14.793Z,66.63
2022-09-12T19:18:42.147Z,66.58
2022-09-12T19:21:14.610Z,66.48
2022-09-12T19:23:41.676Z,66.66
2022-09-12T19:26:14.300Z,65.95
2022-09-12T19:28:41.259Z,65.41
2022-09-12T19:31:11.346Z,63.50
2022-09-12T19:33:38.526Z,63.33
2022-09-12T19:36:17.575Z,64.86
2022-09-12T19:38:54.769Z,65.09
2022-09-12T19:41:21.646Z,66.42
2022-09-12T19:43:48.233Z,67.41
2022-09-12T19:46:20.499Z,67.16
2022-09-12T19:48:47.794Z,67.90
2022-09-12T19:51:15.626Z,66.79
2022-09-12T19:53:42.616Z,67.46
2022-09-12T19:56:11.852Z,66.95
2022-09-12T19:58:41.470Z,67.72
2022-09-12T20:01:14.461Z,67.49
2022-09-12T20:03:41.785Z,66.90
2022-09-12T20:06:11.067Z,66.87
2022-09-12T20:08:39.973Z,66.91
2022-09-12T20:11:07.566Z,68.72
2022-09-12T20:13:34.544Z,69.46
2022-09-12T20:16:22.119Z,68.80
2022-09-12T20:18:54.244Z,70.35
2022-09-12T20:21:25.345Z,70.04
2022-09-12T20:23:52.205Z,70.35
2022-09-12T20:26:20.300Z,70.98
2022-09-12T20:28:47.164Z,70.40
2022-09-12T20:31:15.459Z,70.30
2022-09-12T20:33:42.463Z,70.33
2022-09-12T20:36:16.126Z,70.21
2022-09-12T20:38:57.521Z,70.65
2022-09-12T20:41:25.694Z,70.76
2022-09-12T20:43:53.554Z,70.79
2022-09-12T20:46:22.162Z,70.90
2022-09-12T20:48:50.540Z,70.52
2022-09-12T20:51:18.072Z,70.41
2022-09-12T20:53:44.720Z,71.57
2022-09-12T20:56:12.323Z,73.28
2022-09-12T20:58:43.184Z,73.45
2022-09-12T21:01:12.312Z,73.29
2022-09-12T21:03:40.083Z,73.17
2022-09-12T21:06:07.482Z,72.96
2022-09-12T21:08:34.446Z,72.69
2022-09-12T21:11:01.218Z,73.41
2022-09-12T21:13:28.075Z,73.24
2022-09-12T21:15:59.272Z,74.88
2022-09-12T21:18:26.365Z,74.50
2022-09-12T21:20:54.184Z,74.58
2022-09-12T21:23:21.229Z,74.90
2022-09-12T21:25:52.459Z,73.32
2022-09-12T21:28:20.182Z,73.24
2022-09-12T21:30:50.628Z,72.96
2022-09-12T21:33:18.823Z,73.54
2022-09-12T21:35:45.878Z,74.17
2022-09-12T21:38:12.492Z,74.89
2022-09-12T21:40:39.074Z,74.90
2022-09-12T21:43:09.220Z,74.83
2022-09-12T21:45:38.508Z,74.14
2022-09-12T21:48:05.225Z,74.48
2022-09-12T21:50:31.798Z,74.96
2022-09-12T21:52:58.410Z,75.41
2022-09-12T21:55:27.116Z,76.36
2022-09-12T21:57:54.820Z,75.52
2022-09-12T22:00:21.744Z,75.96
2022-09-12T22:02:49.135Z,75.13
2022-09-12T22:05:17.218Z,74.91
2022-09-12T22:07:44.277Z,75.55
2022-09-12T22:10:11.445Z,75.20
2022-09-12T22:12:39.287Z,74.77
2022-09-12T22:15:29.315Z,75.20
2022-09-12T22:17:55.355Z,75.93
2022-09-12T22:20:21.975Z,75.88
2022-09-12T22:23:06.996Z,76.69
2022-09-12T22:25:33.659Z,77.01
2022-09-12T22:28:00.292Z,76.72
2022-09-12T22:30:27.355Z,76.75
2022-09-12T22:32:54.045Z,77.30
2022-09-12T22:35:21.040Z,77.35
2022-09-12T22:37:47.933Z,77.78
2022-09-12T22:40:15.766Z,78.14
2022-09-12T22:42:42.437Z,77.78
2022-09-12T22:45:09.660Z,77.71
2022-09-12T22:47:36.341Z,77.24
2022-09-12T22:50:03.189Z,78.06
2022-09-12T22:52:29.848Z,79.19
2022-09-12T22:54:57.265Z,79.38
2022-09-12T22:57:23.882Z,78.97
2022-09-12T22:59:50.488Z,78.75
2022-09-12T23:02:17.120Z,79.28
2022-09-12T23:04:43.890Z,79.20
2022-09-12T23:07:11.044Z,79.58
2022-09-12T23:09:37.630Z,78.88
2022-09-12T23:12:04.502Z,78.59
2022-09-12T23:14:31.121Z,79.20
2022-09-12T23:16:57.698Z,79.63
2022-09-12T23:19:24.358Z,78.20
2022-09-12T23:21:51.075Z,78.39
2022-09-12T23:24:17.915Z,77.47
2022-09-12T23:26:44.567Z,77.08
2022-09-12T23:29:11.433Z,76.85
2022-09-12T23:31:38.167Z,76.65
2022-09-12T23:34:06.153Z,77.25
2022-09-12T23:36:33.432Z,77.38
2022-09-12T23:39:00.254Z,77.62
2022-09-12T23:41:26.964Z,77.92
2022-09-12T23:43:53.772Z,77.18
2022-09-12T23:46:21.296Z,76.54
2022-09-12T23:48:48.234Z,76.22
2022-09-12T23:51:15.524Z,76.20
2022-09-12T23:53:42.305Z,77.28
2022-09-12T23:56:09.265Z,77.03
2022-09-12T23:58:36.058Z,77.52
